Canaan, ME (04924)

8:19 AM EDT on May 26, 2015 (GMT -0400)
Canaan | | Change Station
CLOSE
Current Station
Personal Weather Station
Location: Canaan, ME
Elevation: 250 ft
Nearby Weather Stations

Elev 250 ft 44.77 °N, 69.55 °W | Updated 9 minutes ago

Overcast
Overcast
61.6 °F
Feels Like 61.6 °F
N
0.0
Wind Variable Wind from SSE
Gusts 19.0 mph

Today
High -- | Low -- °F
--% Chance of Precip.
Yesterday
High -- | Low -- °F
Precip. -- in
4:59 AM 8:11 PM
First Quarter, 57% visible
Pressure 30.03 in
Visibility 5.0 miles
Clouds Overcast 600 ft
Dew Point 60 °F
Humidity 95%
Rainfall 0.21 in
Snow Depth Not available.
UV 1 out of 12
Pollen 5.10 out of 12
Air Quality Not available.
Flu Activity Local Activity
METAR KWVL 261215Z 19003KT 5SM OVC006 16/14 A3003 RMK AO1

More Conditions Fewer Conditions

Pressure 30.03 in
Visibility 5.0 miles
Clouds Overcast 600 ft
Dew Point 60 °F
Humidity 95%
Rainfall 0.21 in
Snow Depth Not available.
UV 1 out of 12
Pollen 5.10 out of 12
Air Quality Not available.
Flu Activity Local Activity
METAR KWVL 261215Z 19003KT 5SM OVC006 16/14 A3003 RMK AO1

More Conditions Fewer Conditions

10-Day Weather Forecast

Almanac

Astronomy

May. 26, 2015 Rise Set
Actual Time
Civil Twilight
Nautical Twilight
Astronomical Twilight
Moon
Length of Visible Light
Length of Day
Tomorrow will be .
, % of the Moon is Illuminated

Today's Extremes

State Highs State Lows

Community

WunderPhotos

Upload Photos

1,824,324 photos uploaded!

WunderBlogs® & News

Nearby

Air Quality

  Air Quality AQ Index Pollutant
Not available.

Snow Depth

Station Depth Elevation

Earthquake Activity

City Distance Mag. Time & Date
Minimum magnitude displayed is 2.5.

Coastal Water Temperatures

Place Temperature

Stations

Nearby Weather Stations

Station Location Temp. Windchill Dew Point Humidity Wind Precip. Elev Updated Type